createdAt,value
2019-05-30T00:03:16.915Z,97.10
2019-05-30T00:08:21.783Z,97.40
2019-05-30T00:13:26.724Z,97.60
2019-05-30T00:18:31.549Z,97.40
2019-05-30T00:23:36.389Z,97.50
2019-05-30T00:28:41.208Z,97.90
2019-05-30T00:33:46.034Z,97.50
2019-05-30T00:38:50.807Z,97.80
2019-05-30T00:43:55.909Z,98.00
2019-05-30T00:49:00.793Z,97.60
2019-05-30T00:54:06.872Z,97.50
2019-05-30T00:59:11.844Z,97.80
2019-05-30T01:04:16.668Z,97.40
2019-05-30T01:09:21.712Z,97.70
2019-05-30T01:14:26.633Z,97.80
2019-05-30T01:19:31.679Z,98.40
2019-05-30T01:24:36.516Z,98.40
2019-05-30T01:29:41.337Z,98.10
2019-05-30T01:34:46.082Z,98.50
2019-05-30T01:39:50.914Z,98.40
2019-05-30T01:44:56.434Z,98.50
2019-05-30T01:50:02.472Z,98.10
2019-05-30T01:55:09.271Z,98.80
2019-05-30T02:00:20.698Z,98.30
2019-05-30T02:05:22.484Z,98.60
2019-05-30T02:10:27.311Z,98.50
2019-05-30T02:15:32.290Z,98.80
2019-05-30T02:20:37.233Z,98.70
2019-05-30T02:25:41.995Z,98.40
2019-05-30T02:30:46.741Z,98.50
2019-05-30T02:35:51.561Z,98.90
2019-05-30T02:40:56.393Z,98.70
2019-05-30T02:46:01.234Z,98.80
2019-05-30T02:51:07.792Z,99.20
2019-05-30T02:56:12.718Z,99.80
2019-05-30T03:01:17.784Z,99.80
2019-05-30T03:06:22.665Z,99.10
2019-05-30T03:11:27.501Z,99.30
2019-05-30T03:16:32.331Z,99.30
2019-05-30T03:21:37.269Z,99.00
2019-05-30T03:26:42.095Z,99.40
2019-05-30T03:31:47.616Z,99.70
2019-05-30T03:36:52.438Z,99.70
2019-05-30T03:41:57.260Z,99.60
2019-05-30T03:47:06.320Z,99.60
2019-05-30T03:52:17.104Z,99.80
2019-05-30T03:57:23.944Z,99.70
2019-05-30T04:02:55.287Z,99.80
2019-05-30T04:07:49.536Z,99.70
2019-05-30T04:13:15.272Z,99.40
2019-05-30T04:18:20.131Z,98.80
2019-05-30T04:23:24.833Z,97.40
2019-05-30T04:28:29.642Z,96.80
2019-05-30T04:33:34.535Z,96.90
2019-05-30T04:38:39.295Z,96.90
2019-05-30T04:43:44.049Z,97.20
2019-05-30T04:48:48.803Z,97.30
2019-05-30T04:53:53.551Z,97.10
2019-05-30T04:58:58.311Z,96.00
2019-05-30T05:04:03.151Z,95.60
2019-05-30T05:09:08.575Z,95.30
2019-05-30T05:14:14.351Z,93.80
2019-05-30T05:19:19.607Z,93.80
2019-05-30T05:24:24.770Z,92.70
2019-05-30T05:29:29.605Z,92.30
2019-05-30T05:34:34.534Z,92.90
2019-05-30T05:39:39.298Z,92.60
2019-05-30T05:44:44.203Z,92.50
2019-05-30T05:49:48.954Z,92.30
2019-05-30T05:54:53.713Z,91.40
2019-05-30T05:59:58.491Z,92.00
2019-05-30T06:05:04.298Z,90.70
2019-05-30T06:10:09.867Z,88.20
2019-05-30T06:15:14.711Z,85.00
2019-05-30T06:20:19.652Z,73.90
2019-05-30T06:25:26.929Z,75.00
2019-05-30T06:30:30.912Z,72.00
2019-05-30T06:35:35.751Z,68.50
2019-05-30T06:40:40.582Z,68.10
2019-05-30T06:45:45.508Z,70.70
2019-05-30T06:50:50.361Z,71.90
2019-05-30T06:55:55.118Z,74.30
2019-05-30T07:00:59.941Z,74.40
2019-05-30T07:06:05.214Z,72.90
2019-05-30T07:11:10.239Z,68.10
2019-05-30T07:16:15.029Z,70.20
2019-05-30T07:21:19.857Z,67.10
2019-05-30T07:26:25.634Z,59.30
2019-05-30T07:31:30.463Z,61.50
2019-05-30T07:36:35.290Z,59.00
2019-05-30T07:41:40.127Z,58.30
2019-05-30T07:46:44.999Z,56.70
2019-05-30T07:51:49.760Z,54.50
2019-05-30T07:56:54.530Z,51.50
2019-05-30T08:01:59.360Z,52.80
2019-05-30T08:07:04.299Z,52.00
2019-05-30T08:12:09.126Z,51.60
2019-05-30T08:17:13.891Z,45.70
2019-05-30T08:22:18.659Z,45.40
2019-05-30T08:27:23.489Z,41.10
2019-05-30T08:32:28.380Z,42.70
2019-05-30T08:37:33.260Z,45.50
2019-05-30T08:42:38.569Z,42.00
2019-05-30T08:47:44.724Z,37.70
2019-05-30T08:52:49.622Z,39.20
2019-05-30T08:57:54.463Z,39.30
2019-05-30T09:02:59.293Z,36.30
2019-05-30T09:08:04.329Z,39.00
2019-05-30T09:13:09.156Z,36.50
2019-05-30T09:18:14.011Z,38.60
2019-05-30T09:23:18.831Z,39.30
2019-05-30T09:28:23.721Z,39.30
2019-05-30T09:33:28.572Z,36.50
2019-05-30T09:38:33.519Z,43.40
2019-05-30T09:43:38.282Z,38.40
2019-05-30T09:48:43.268Z,42.60
2019-05-30T09:53:50.455Z,40.50
2019-05-30T09:58:55.303Z,41.60
2019-05-30T10:04:00.062Z,43.30
2019-05-30T10:09:07.645Z,42.10
2019-05-30T10:14:12.483Z,42.00
2019-05-30T10:19:17.611Z,37.50
2019-05-30T10:24:22.429Z,39.10
2019-05-30T10:29:27.189Z,38.70
2019-05-30T10:34:32.023Z,36.10
2019-05-30T10:39:36.863Z,40.80
2019-05-30T10:44:41.695Z,42.80
2019-05-30T10:49:48.037Z,42.70
2019-05-30T10:54:53.549Z,42.60
2019-05-30T10:59:58.372Z,43.80
2019-05-30T11:05:04.592Z,43.70
2019-05-30T11:10:39.032Z,38.50
2019-05-30T11:15:44.246Z,39.00
2019-05-30T11:20:49.924Z,37.60
2019-05-30T11:25:54.859Z,40.40
2019-05-30T11:31:03.980Z,38.90
2019-05-30T11:36:07.602Z,40.20
2019-05-30T11:41:12.371Z,43.70
2019-05-30T11:46:17.283Z,39.30
2019-05-30T11:51:22.130Z,37.90
2019-05-30T11:56:26.871Z,37.80
2019-05-30T12:01:31.724Z,38.20
2019-05-30T12:06:36.575Z,39.10
2019-05-30T12:11:41.418Z,38.80
2019-05-30T12:16:46.238Z,35.90
2019-05-30T12:21:51.525Z,36.40
2019-05-30T12:26:56.397Z,33.80
2019-05-30T12:32:02.200Z,36.80
2019-05-30T12:37:07.678Z,32.60
2019-05-30T12:42:12.518Z,32.60
2019-05-30T12:47:17.439Z,34.30
2019-05-30T12:52:22.278Z,38.70
2019-05-30T12:57:27.101Z,30.50
2019-05-30T13:02:31.924Z,35.40
2019-05-30T13:07:36.854Z,34.10
2019-05-30T13:12:41.690Z,34.20
2019-05-30T13:17:46.521Z,37.40
2019-05-30T13:22:51.352Z,36.10
2019-05-30T13:27:56.257Z,36.00
2019-05-30T13:33:01.095Z,32.40
2019-05-30T13:38:07.276Z,32.80
2019-05-30T13:43:12.246Z,35.30
2019-05-30T13:48:17.087Z,33.90
2019-05-30T13:53:21.909Z,31.10
2019-05-30T13:58:26.936Z,33.90
2019-05-30T14:03:31.765Z,35.20
2019-05-30T14:08:41.427Z,35.70
2019-05-30T14:13:43.157Z,36.10
2019-05-30T14:18:47.960Z,34.10
2019-05-30T14:23:52.866Z,35.10
2019-05-30T14:28:57.689Z,31.50
2019-05-30T14:34:06.004Z,33.60
2019-05-30T14:39:11.243Z,34.30
2019-05-30T14:44:16.142Z,34.20
2019-05-30T14:49:20.983Z,34.50
2019-05-30T14:54:25.750Z,33.10
2019-05-30T14:59:30.435Z,34.00
2019-05-30T15:04:35.274Z,33.40
2019-05-30T15:09:42.424Z,32.30
2019-05-30T15:14:46.652Z,33.30
2019-05-30T15:19:51.504Z,31.90
2019-05-30T15:24:56.339Z,32.40
2019-05-30T15:30:01.119Z,34.40
2019-05-30T15:35:06.750Z,33.70
2019-05-30T15:40:13.024Z,30.60
2019-05-30T15:45:18.563Z,33.30
2019-05-30T15:50:23.501Z,32.60
2019-05-30T15:55:28.296Z,34.10
2019-05-30T16:00:33.151Z,33.60
2019-05-30T16:05:37.927Z,34.20
2019-05-30T16:10:42.759Z,35.00
2019-05-30T16:15:47.585Z,36.60
2019-05-30T16:20:52.358Z,33.70
2019-05-30T16:25:57.184Z,35.30
2019-05-30T16:31:02.017Z,35.30
2019-05-30T16:36:06.854Z,37.10
2019-05-30T16:41:11.684Z,38.50
2019-05-30T16:46:16.466Z,36.70
2019-05-30T16:51:21.322Z,37.70
2019-05-30T16:56:26.155Z,37.90
2019-05-30T17:01:30.995Z,38.40
2019-05-30T17:06:35.902Z,39.10
2019-05-30T17:11:40.736Z,38.50
2019-05-30T17:16:45.691Z,40.70
2019-05-30T17:21:50.521Z,41.00
2019-05-30T17:26:55.355Z,40.90
2019-05-30T17:32:00.191Z,41.10
2019-05-30T17:37:05.030Z,42.40
2019-05-30T17:42:09.875Z,43.50
2019-05-30T17:47:14.717Z,44.70
2019-05-30T17:52:19.664Z,45.40
2019-05-30T17:57:24.511Z,44.40
2019-05-30T18:02:30.466Z,45.90
2019-05-30T18:07:35.295Z,46.50
2019-05-30T18:12:40.128Z,46.90
2019-05-30T18:17:45.084Z,47.50
2019-05-30T18:22:49.911Z,49.60
2019-05-30T18:27:56.037Z,50.60
2019-05-30T18:33:00.950Z,52.40
2019-05-30T18:38:06.037Z,53.40
2019-05-30T18:43:11.172Z,53.10
2019-05-30T18:48:16.126Z,53.40
2019-05-30T18:53:20.992Z,53.90
2019-05-30T18:58:26.787Z,55.20
2019-05-30T19:03:33.328Z,55.70
2019-05-30T19:08:38.224Z,57.50
2019-05-30T19:13:43.058Z,59.00
2019-05-30T19:18:47.947Z,61.30
2019-05-30T19:23:53.065Z,64.50
2019-05-30T19:28:57.898Z,67.40
2019-05-30T19:34:02.873Z,68.40
2019-05-30T19:39:07.788Z,71.70
2019-05-30T19:44:12.615Z,71.10
2019-05-30T19:49:17.518Z,73.40
2019-05-30T19:54:22.363Z,73.50
2019-05-30T19:59:27.184Z,74.90
2019-05-30T20:04:32.225Z,77.70
2019-05-30T20:09:37.072Z,78.80
2019-05-30T20:14:41.903Z,78.30
2019-05-30T20:19:46.924Z,78.70
2019-05-30T20:24:51.745Z,79.40
2019-05-30T20:29:56.530Z,81.40
2019-05-30T20:35:01.358Z,83.80
2019-05-30T20:40:07.185Z,84.30
2019-05-30T20:45:12.330Z,82.90
2019-05-30T20:50:18.857Z,82.50
2019-05-30T20:55:23.706Z,84.40
2019-05-30T21:00:40.118Z,85.80
2019-05-30T21:05:46.055Z,86.60
2019-05-30T21:10:51.719Z,88.50
2019-05-30T21:15:58.967Z,88.80
2019-05-30T21:21:03.918Z,89.90
2019-05-30T21:26:08.776Z,89.60
2019-05-30T21:31:13.646Z,90.10
2019-05-30T21:36:18.445Z,90.60
2019-05-30T21:41:23.212Z,91.40
2019-05-30T21:46:27.972Z,91.10
2019-05-30T21:51:32.826Z,92.40
2019-05-30T21:56:37.657Z,92.20
2019-05-30T22:01:42.660Z,92.20
2019-05-30T22:06:47.615Z,92.50
2019-05-30T22:11:52.390Z,92.90
2019-05-30T22:16:57.223Z,93.40
2019-05-30T22:22:02.093Z,93.00
2019-05-30T22:27:06.912Z,93.30
2019-05-30T22:32:11.746Z,93.50
2019-05-30T22:37:16.451Z,93.60
2019-05-30T22:42:21.674Z,93.80
2019-05-30T22:47:26.455Z,94.30
2019-05-30T22:52:31.295Z,94.50
2019-05-30T22:57:36.092Z,94.60
2019-05-30T23:02:40.905Z,94.50
2019-05-30T23:07:45.676Z,94.80
2019-05-30T23:12:50.439Z,95.10
2019-05-30T23:17:55.282Z,95.30
2019-05-30T23:23:00.479Z,95.60
2019-05-30T23:28:05.329Z,95.80
2019-05-30T23:33:11.663Z,95.80
2019-05-30T23:38:17.609Z,96.00
2019-05-30T23:43:22.447Z,96.00
2019-05-30T23:48:27.210Z,96.10
2019-05-30T23:53:31.982Z,96.00
2019-05-30T23:58:36.796Z,95.90
